Terminal Aerodrome Forecast
Issued by NWS

Home | Current Version | Previous Version | Text Only | Print | Product List | Glossary On
Versions: 1 2 3 4 5 6 7 8 9 10 11 12 13 14 15 16 17 18 19 20 21
817
FTUS43 KEAX 220512 AAB
TAFMKC
TAF AMD
KMKC 220512Z 2205/2224 05010KT 5SM -FZDZ BKN015 OVC110
     FM220600 06010KT 5SM -SNPL OVC025
     FM220900 06009KT 5SM -FZRA OVC008
     FM221400 08009KT P6SM OVC008
     FM222100 11008KT 5SM -RA BR OVC006=

USA.gov is the U.S. government's official web portal to all federal, state and local government web resources and services.